Time;durP1;ratioP1;P1;durP2;ratioP2;P2;SDS_P1;SDS_P2;PMS_P1;PMS_P2;Temp;Humidity;BMP_temperature;BMP_pressure;BME280_temperature;BME280_humidity;BME280_pressure;Samples;Min_cycle;Max_cycle;Signal;HPM_P1;HPM_P2
2022/10/19 05:33:16;;;;;;;;;17.25;15.50;;;;;14.51;100.00;101884.28;5592124;22;50324;-70
2022/10/19 05:35:42;;;;;;;;;16.75;15.75;;;;;14.81;100.00;101934.28;5005995;28;49732;-71
2022/10/19 05:38:07;;;;;;;;;17.50;14.50;;;;;14.23;100.00;101804.38;4992701;28;49759;-71
2022/10/19 05:40:32;;;;;;;;;12.00;12.00;;;;;14.08;100.00;101809.31;5017020;28;54075;-76
2022/10/19 05:42:57;;;;;;;;;17.00;16.75;;;;;13.69;100.00;101714.25;5029188;28;50058;-75
2022/10/19 05:45:23;;;;;;;;;21.25;19.50;;;;;14.05;100.00;101777.56;5015770;28;52105;-74
2022/10/19 05:47:48;;;;;;;;;17.00;15.25;;;;;14.76;100.00;101888.34;5011575;28;50013;-74
2022/10/19 05:50:13;;;;;;;;;18.75;17.75;;;;;14.09;100.00;101760.94;5011791;28;50967;-76
2022/10/19 05:52:39;;;;;;;;;14.75;10.00;;;;;14.70;100.00;101875.91;5011839;28;49693;-73
2022/10/19 05:55:05;;;;;;;;;12.00;11.50;;;;;14.96;100.00;101929.34;5013289;28;49806;-73
2022/10/19 05:57:31;;;;;;;;;16.25;15.50;;;;;14.96;100.00;101916.13;5010773;28;49820;-78
2022/10/19 05:59:57;;;;;;;;;10.25;10.00;;;;;13.96;100.00;101774.69;4994690;28;50030;-77
2022/10/19 06:02:23;;;;;;;;;13.25;12.00;;;;;14.96;100.00;101909.91;4992971;28;49853;-74
2022/10/19 06:04:48;;;;;;;;;16.75;15.00;;;;;13.24;100.00;101654.28;4992429;28;49611;-77
2022/10/19 06:07:23;;;;;;;;;13.50;13.50;;;;;14.61;100.00;101849.28;4992633;28;49750;-81
2022/10/19 06:09:48;;;;;;;;;13.00;10.25;;;;;13.57;100.00;101720.13;4992236;28;49673;-82
2022/10/19 06:12:13;;;;;;;;;18.25;15.75;;;;;13.67;100.00;101751.16;4994193;28;49597;-81
2022/10/19 06:14:39;;;;;;;;;15.50;12.75;;;;;14.93;100.00;101965.38;4992056;28;49803;-81
2022/10/19 06:17:07;;;;;;;;;14.25;12.75;;;;;14.51;100.00;101855.22;4998732;28;50060;-80
2022/10/19 06:19:32;;;;;;;;;15.00;12.00;;;;;14.55;100.00;101857.06;5003824;28;50964;-79
2022/10/19 06:21:57;;;;;;;;;19.75;16.75;;;;;13.19;100.00;101655.91;4989468;28;50045;-80
2022/10/19 06:24:33;;;;;;;;;15.00;13.75;;;;;13.47;100.00;101675.94;4998210;28;50072;-83
2022/10/19 06:27:06;;;;;;;;;13.00;11.75;;;;;14.93;100.00;101945.13;4998547;28;49749;-84
2022/10/19 06:29:35;;;;;;;;;19.50;15.50;;;;;13.27;100.00;101632.38;5010619;28;51159;-80
2022/10/19 06:32:01;;;;;;;;;13.00;12.00;;;;;14.46;100.00;101838.38;5010060;28;49868;-70
2022/10/19 06:34:27;;;;;;;;;12.25;12.25;;;;;14.59;100.00;101867.75;5010544;28;49932;-71
2022/10/19 06:36:52;;;;;;;;;16.25;13.25;;;;;14.97;100.00;101917.03;5009505;28;49902;-72
2022/10/19 06:39:17;;;;;;;;;16.00;14.50;;;;;14.98;100.00;101926.72;5010331;28;50814;-71
2022/10/19 06:41:43;;;;;;;;;15.00;14.25;;;;;14.98;100.00;101924.97;4995892;28;49653;-72
2022/10/19 06:44:08;;;;;;;;;16.50;14.25;;;;;14.86;100.00;101900.91;4991885;28;49905;-70
2022/10/19 06:46:33;;;;;;;;;13.75;12.50;;;;;13.99;100.00;101780.97;4991849;28;49731;-70
2022/10/19 06:49:00;;;;;;;;;14.50;12.00;;;;;15.03;100.00;101907.44;5001029;28;51638;-70
2022/10/19 06:51:27;;;;;;;;;19.25;15.25;;;;;14.49;100.00;101820.84;5010649;28;49701;-71
2022/10/19 06:53:54;;;;;;;;;14.75;14.00;;;;;15.04;100.00;101905.69;5010666;28;49665;-72
2022/10/19 06:56:19;;;;;;;;;17.00;14.75;;;;;15.07;100.00;101893.44;5010865;28;49810;-71
2022/10/19 06:58:45;;;;;;;;;16.00;15.00;;;;;14.64;100.00;101825.56;5010568;28;49761;-71
2022/10/19 07:01:12;;;;;;;;;11.75;11.75;;;;;15.11;100.00;101939.34;4998163;28;49947;-71
2022/10/19 07:03:39;;;;;;;;;13.25;13.00;;;;;15.16;100.00;101914.78;4991385;28;49801;-71
2022/10/19 07:06:07;;;;;;;;;10.25;10.25;;;;;15.17;100.00;101908.63;4991496;28;49616;-71
2022/10/19 07:08:35;;;;;;;;;16.50;16.50;;;;;14.06;100.00;101742.38;4996411;28;49777;-70
2022/10/19 07:11:03;;;;;;;;;12.50;11.50;;;;;15.22;100.00;101900.78;5010329;28;49799;-70
2022/10/19 07:13:29;;;;;;;;;13.50;13.50;;;;;14.28;100.00;101772.78;5010212;28;49846;-70
2022/10/19 07:16:10;;;;;;;;;15.25;13.00;;;;;15.18;100.00;101880.44;5010502;28;49968;-70
2022/10/19 07:18:36;;;;;;;;;14.00;13.25;;;;;14.95;100.00;101816.47;5009728;28;49779;-72
2022/10/19 07:21:05;;;;;;;;;16.25;16.00;;;;;15.38;100.00;101913.44;5010410;28;49897;-71
2022/10/19 07:23:32;;;;;;;;;17.25;15.25;;;;;14.23;100.00;101696.09;5009027;28;49846;-71
2022/10/19 07:26:02;;;;;;;;;13.00;13.00;;;;;15.35;100.00;101862.25;5010263;28;49802;-70
2022/10/19 07:28:32;;;;;;;;;18.50;17.25;;;;;15.22;100.00;101820.53;5010044;28;49963;-78
2022/10/19 07:30:57;;;;;;;;;17.75;15.75;;;;;14.93;100.00;101773.25;5009951;28;49712;-76
2022/10/19 07:33:23;;;;;;;;;20.75;16.00;;;;;14.60;100.00;101702.16;5009704;28;49826;-78
2022/10/19 07:35:48;;;;;;;;;15.25;14.50;;;;;15.66;100.00;101867.25;5010082;28;49625;-77
2022/10/19 07:38:13;;;;;;;;;14.00;14.00;;;;;14.88;100.00;101732.66;4990882;28;49783;-71
2022/10/19 07:40:39;;;;;;;;;18.75;18.00;;;;;15.23;100.00;101791.44;5008488;28;49742;-71
2022/10/19 07:43:04;;;;;;;;;15.75;15.50;;;;;15.56;100.00;101829.97;4991518;28;49796;-70
2022/10/19 07:45:31;;;;;;;;;13.75;13.50;;;;;15.71;100.00;101877.91;4990967;28;49860;-70
2022/10/19 07:47:58;;;;;;;;;19.25;18.00;;;;;15.90;100.00;101903.84;4990510;28;51159;-70
2022/10/19 07:50:26;;;;;;;;;20.75;20.50;;;;;15.54;100.00;101800.84;4990847;28;49852;-71
2022/10/19 07:52:51;;;;;;;;;19.00;17.75;;;;;15.39;100.00;101796.16;5001881;28;49924;-71
2022/10/19 07:55:17;;;;;;;;;18.25;18.00;;;;;14.53;100.00;101623.63;5009873;28;49925;-71
2022/10/19 07:57:46;;;;;;;;;15.25;15.25;;;;;16.09;100.00;101860.00;5009639;28;50554;-72
2022/10/19 08:00:12;;;;;;;;;16.50;14.25;;;;;16.16;100.00;101858.34;5009487;28;49695;-74
2022/10/19 08:02:37;;;;;;;;;17.50;16.50;;;;;16.16;100.00;101859.25;5008405;28;49896;-72
2022/10/19 08:05:03;;;;;;;;;23.00;20.75;;;;;16.30;100.00;101873.56;5009806;28;49846;-75
2022/10/19 08:07:32;;;;;;;;;15.25;15.25;;;;;16.02;100.00;101826.38;5009528;28;50192;-72
2022/10/19 08:09:57;;;;;;;;;19.00;19.00;;;;;16.40;100.00;101853.41;5005871;28;49729;-72
2022/10/19 08:12:22;;;;;;;;;22.25;20.25;;;;;15.96;100.00;101754.75;5005344;28;50012;-71
2022/10/19 08:14:48;;;;;;;;;15.50;15.50;;;;;16.65;100.00;101867.00;5009738;28;49707;-71
2022/10/19 08:17:16;;;;;;;;;16.75;16.50;;;;;16.55;100.00;101829.75;5008972;28;50471;-73
2022/10/19 08:19:43;;;;;;;;;18.75;17.50;;;;;16.82;100.00;101852.25;5000391;28;49801;-72
2022/10/19 08:22:08;;;;;;;;;18.00;17.25;;;;;16.92;100.00;101864.75;4990286;28;49687;-69
2022/10/19 08:24:34;;;;;;;;;19.25;17.75;;;;;16.45;100.00;101789.88;4990510;28;49731;-69
2022/10/19 08:27:01;;;;;;;;;25.75;23.50;;;;;16.20;100.00;101717.09;4990137;28;54767;-70
2022/10/19 08:29:27;;;;;;;;;24.50;22.25;;;;;17.17;100.00;101842.03;4990419;28;49675;-73
2022/10/19 08:31:53;;;;;;;;;22.50;22.50;;;;;17.23;100.00;101833.25;4990067;28;49770;-74
2022/10/19 08:34:18;;;;;;;;;19.00;19.00;;;;;16.20;99.68;101672.94;5002062;28;50051;-73
2022/10/19 08:36:44;;;;;;;;;21.00;19.50;;;;;17.43;99.78;101847.63;4993124;28;51034;-74
2022/10/19 08:39:13;;;;;;;;;16.75;16.25;;;;;17.21;98.98;101781.94;4993639;28;49736;-75
2022/10/19 08:41:38;;;;;;;;;20.00;17.50;;;;;17.54;98.15;101829.13;4993418;28;49872;-75
2022/10/19 08:44:29;;;;;;;;;20.00;19.25;;;;;17.59;97.71;101825.66;4992298;28;49880;-74
2022/10/19 08:47:06;;;;;;;;;20.00;17.00;;;;;17.05;96.84;101754.34;4993152;28;50897;-74
2022/10/19 08:49:32;;;;;;;;;19.75;19.00;;;;;17.64;96.38;101839.84;5010426;28;49736;-75
2022/10/19 08:52:11;;;;;;;;;20.75;19.50;;;;;17.08;96.01;101715.50;5011607;28;49835;-75
2022/10/19 08:54:41;;;;;;;;;20.50;20.00;;;;;17.37;95.83;101759.94;4994510;28;49644;-76
2022/10/19 08:57:47;;;;;;;;;17.50;15.75;;;;;17.17;95.94;101747.38;4993012;28;49959;-75
2022/10/19 09:00:42;;;;;;;;;14.50;14.25;;;;;17.75;96.26;101816.06;4993560;28;50115;-74
2022/10/19 09:03:23;;;;;;;;;22.75;21.50;;;;;17.73;95.44;101818.72;5007035;28;49768;-74
2022/10/19 09:06:18;;;;;;;;;16.75;16.75;;;;;17.48;95.51;101768.91;5011815;28;49769;-79
2022/10/19 09:08:44;;;;;;;;;18.25;17.25;;;;;17.08;95.63;101699.59;4993174;28;51874;-75
2022/10/19 09:11:10;;;;;;;;;19.50;18.00;;;;;16.42;96.47;101591.09;5005560;28;49887;-75
2022/10/19 09:13:42;;;;;;;;;15.75;14.00;;;;;17.83;95.71;101810.81;5011960;28;49939;-75
2022/10/19 09:16:13;;;;;;;;;16.25;16.25;;;;;17.36;95.17;101739.59;5012088;28;49734;-75
2022/10/19 09:18:39;;;;;;;;;18.75;15.25;;;;;16.38;95.89;101574.25;4992485;28;50276;-75
2022/10/19 09:21:14;;;;;;;;;18.75;16.50;;;;;17.80;95.13;101792.22;4994410;28;49844;-84
2022/10/19 09:23:46;;;;;;;;;17.25;16.50;;;;;16.90;95.31;101670.22;4993169;28;50052;-77
2022/10/19 09:26:15;;;;;;;;;31.50;28.75;;;;;17.83;95.35;101805.50;4994241;28;49812;-81
2022/10/19 09:29:04;;;;;;;;;18.25;17.00;;;;;17.83;95.67;101798.44;4992687;28;50874;-74
2022/10/19 09:31:32;;;;;;;;;18.00;18.00;;;;;17.74;95.45;101771.78;4992502;28;49693;-75
2022/10/19 09:34:07;;;;;;;;;15.75;15.50;;;;;17.17;94.76;101667.78;4992336;28;49828;-78
2022/10/19 09:36:48;;;;;;;;;17.00;16.00;;;;;16.48;95.35;101565.50;4992700;28;49813;-75
2022/10/19 09:39:14;;;;;;;;;13.25;11.00;;;;;17.07;94.40;101636.75;4992619;28;49690;-81
2022/10/19 09:42:14;;;;;;;;;14.00;14.00;;;;;17.83;94.03;101749.72;4998446;28;50661;-77
2022/10/19 09:44:40;;;;;;;;;12.25;11.50;;;;;17.04;93.93;101606.69;5011513;28;49771;-77
2022/10/19 09:47:30;;;;;;;;;11.25;11.25;;;;;18.12;93.80;101788.00;5009018;28;49713;-75
2022/10/19 09:50:20;;;;;;;;;11.00;10.75;;;;;18.19;93.19;101803.09;5011324;28;50650;-76
2022/10/19 09:52:51;;;;;;;;;13.75;12.00;;;;;17.33;93.53;101655.53;4988365;28;49813;-75
2022/10/19 09:55:26;;;;;;;;;11.75;11.75;;;;;17.56;92.25;101674.28;5011083;28;49987;-76
2022/10/19 09:58:24;;;;;;;;;19.50;18.25;;;;;17.81;92.65;101693.06;5011429;28;49926;-75
2022/10/19 10:00:54;;;;;;;;;16.00;15.00;;;;;18.17;92.31;101746.41;5008153;28;49845;-82
2022/10/19 10:03:42;;;;;;;;;15.75;15.25;;;;;18.35;91.98;101782.81;5011359;28;49760;-76
2022/10/19 10:06:14;;;;;;;;;13.50;13.50;;;;;18.38;91.31;101771.31;5011589;28;49901;-77
2022/10/19 10:08:46;;;;;;;;;15.25;14.75;;;;;18.45;91.78;101773.13;5011586;28;49788;-80
2022/10/19 10:11:14;;;;;;;;;12.25;8.75;;;;;17.64;91.55;101638.03;4990919;28;52452;-78
2022/10/19 10:13:48;;;;;;;;;12.50;12.00;;;;;17.76;90.53;101633.69;5010985;28;49726;-76
2022/10/19 10:16:16;;;;;;;;;10.50;10.50;;;;;18.56;90.54;101752.78;5011128;28;49780;-74
2022/10/19 10:18:54;;;;;;;;;16.00;14.50;;;;;18.63;91.10;101769.66;4998445;28;49739;-77
2022/10/19 10:21:23;;;;;;;;;11.00;11.00;;;;;18.67;89.70;101753.75;4992182;28;50484;-77
2022/10/19 10:24:04;;;;;;;;;14.25;12.00;;;;;18.71;89.54;101758.16;4999958;28;50298;-76
2022/10/19 10:26:29;;;;;;;;;10.50;9.25;;;;;18.78;90.82;101748.44;5012935;28;49901;-75
2022/10/19 10:28:55;;;;;;;;;12.00;12.00;;;;;18.26;89.69;101648.13;5013410;28;50192;-74
2022/10/19 10:31:27;;;;;;;;;12.00;12.00;;;;;17.96;89.53;101584.25;5014251;28;50319;-76
2022/10/19 10:34:04;;;;;;;;;8.50;7.75;;;;;18.65;88.44;101677.50;5013286;28;49811;-72
2022/10/19 10:36:30;;;;;;;;;9.50;9.50;;;;;18.13;87.18;101594.91;5012956;28;49661;-77
2022/10/19 10:39:06;;;;;;;;;12.75;12.00;;;;;17.84;87.08;101537.25;4992990;28;49931;-75
2022/10/19 10:41:43;;;;;;;;;10.25;9.00;;;;;18.71;87.65;101667.75;4992198;28;49916;-76
2022/10/19 10:44:28;;;;;;;;;14.75;14.00;;;;;18.98;87.62;101728.09;5011864;28;49843;-77
2022/10/19 10:46:59;;;;;;;;;12.25;12.25;;;;;18.99;87.46;101705.91;5003356;28;49711;-73
2022/10/19 10:49:36;;;;;;;;;11.50;11.50;;;;;19.00;86.52;101682.84;4994026;28;49729;-74
2022/10/19 10:52:08;;;;;;;;;14.00;12.00;;;;;19.11;86.07;101683.78;4995137;28;50891;-72
2022/10/19 10:54:34;;;;;;;;;12.75;12.75;;;;;18.99;86.23;101665.13;4992392;28;50041;-75
2022/10/19 10:57:10;;;;;;;;;14.75;12.25;;;;;19.16;86.40;101690.84;5007307;28;49788;-75
2022/10/19 11:00:02;;;;;;;;;15.00;15.00;;;;;18.03;85.39;101493.03;4997508;28;50086;-77
2022/10/19 11:02:30;;;;;;;;;10.25;9.25;;;;;19.23;85.24;101678.44;5009980;28;50621;-79
2022/10/19 11:05:19;;;;;;;;;14.00;14.00;;;;;18.41;84.31;101518.75;5011346;28;49785;-83
2022/10/19 11:07:47;;;;;;;;;7.75;7.75;;;;;19.35;85.15;101694.41;4982105;28;49588;-78
2022/10/19 11:10:29;;;;;;;;;11.50;10.50;;;;;19.36;84.18;101673.97;5005761;28;49988;-80
2022/10/19 11:13:20;;;;;;;;;13.25;11.25;;;;;19.44;85.03;101683.75;4991409;28;51434;-78
2022/10/19 11:15:51;;;;;;;;;13.00;12.00;;;;;19.52;84.56;101654.44;5003193;28;49735;-78
2022/10/19 11:18:23;;;;;;;;;15.00;12.75;;;;;19.60;84.50;101678.44;5002914;28;49811;-77
2022/10/19 11:21:09;;;;;;;;;13.00;12.25;;;;;18.72;83.25;101491.34;5002792;28;49848;-79
2022/10/19 11:23:41;;;;;;;;;11.75;11.50;;;;;19.68;82.94;101648.19;5012879;28;52592;-80
2022/10/19 11:26:25;;;;;;;;;10.50;9.25;;;;;19.80;82.99;101659.75;5009167;28;49862;-78
2022/10/19 11:29:14;;;;;;;;;14.75;12.00;;;;;19.92;81.74;101623.28;5002260;28;49793;-78
2022/10/19 11:31:53;;;;;;;;;12.75;11.75;;;;;18.93;81.41;101418.56;4992418;28;49730;-75
2022/10/19 11:34:37;;;;;;;;;11.25;11.25;;;;;20.15;80.27;101598.28;5014641;28;50764;-74
2022/10/19 11:37:16;;;;;;;;;12.00;9.00;;;;;20.22;81.04;101592.91;4997492;28;49845;-74
2022/10/19 11:39:59;;;;;;;;;10.00;10.00;;;;;20.33;80.58;101584.84;5008239;28;49891;-73
2022/10/19 11:42:24;;;;;;;;;11.50;11.00;;;;;20.45;79.87;101581.25;5024538;28;49439;-73
2022/10/19 11:45:00;;;;;;;;;9.75;9.75;;;;;20.40;80.56;101572.38;5008427;28;50154;-74
2022/10/19 11:47:50;;;;;;;;;10.25;10.25;;;;;20.32;78.34;101536.88;5001031;28;49606;-73
2022/10/19 11:50:40;;;;;;;;;10.25;10.25;;;;;20.64;77.83;101596.22;5006291;28;49945;-74
2022/10/19 11:53:18;;;;;;;;;13.75;13.75;;;;;19.92;77.23;101466.06;5003229;28;49790;-76
2022/10/19 11:56:15;;;;;;;;;13.25;12.25;;;;;20.69;78.56;101585.53;5003551;28;50830;-75
2022/10/19 11:59:13;;;;;;;;;9.00;9.00;;;;;19.82;77.55;101411.06;5004632;28;49849;-76
2022/10/19 12:01:44;;;;;;;;;13.25;12.25;;;;;20.73;77.72;101558.78;4992897;28;49937;-75
2022/10/19 12:04:20;;;;;;;;;12.25;12.25;;;;;20.51;76.91;101519.88;4996154;28;49848;-75
2022/10/19 12:06:57;;;;;;;;;10.75;9.25;;;;;20.74;77.16;101559.69;5009515;28;50661;-75
2022/10/19 12:10:00;;;;;;;;;9.75;9.75;;;;;20.72;76.52;101549.03;5009834;28;49857;-78
2022/10/19 12:12:31;;;;;;;;;12.25;11.50;;;;;20.18;77.51;101449.00;5013984;28;49732;-75
2022/10/19 12:15:11;;;;;;;;;9.25;9.00;;;;;20.35;76.29;101504.84;5012354;28;49854;-79
2022/10/19 12:17:41;;;;;;;;;13.25;11.00;;;;;20.73;76.02;101539.25;4993475;28;49963;-78
2022/10/19 12:20:34;;;;;;;;;12.25;10.25;;;;;20.69;76.21;101542.84;4993403;28;49607;-77
2022/10/19 12:23:03;;;;;;;;;12.25;12.25;;;;;19.67;76.68;101404.03;4998838;28;49801;-75
2022/10/19 12:25:29;;;;;;;;;11.50;11.50;;;;;19.91;77.07;101426.97;5007492;28;50328;-76
2022/10/19 12:27:56;;;;;;;;;13.50;10.75;;;;;20.68;76.57;101538.41;4999073;28;50854;-75
2022/10/19 12:30:23;;;;;;;;;13.25;11.75;;;;;20.73;75.81;101571.25;4993816;28;49963;-77
2022/10/19 12:33:20;;;;;;;;;11.25;11.25;;;;;20.81;76.57;101550.72;5000314;28;49998;-74
2022/10/19 12:36:05;;;;;;;;;11.50;10.50;;;;;20.90;76.39;101552.44;4977993;28;50259;-74
2022/10/19 12:38:41;;;;;;;;;12.00;11.00;;;;;20.99;76.01;101550.56;4995664;28;50841;-74
2022/10/19 12:41:17;;;;;;;;;10.25;10.00;;;;;20.58;75.55;101458.47;4994384;28;49780;-74
2022/10/19 12:43:51;;;;;;;;;14.50;12.00;;;;;20.47;74.85;101419.47;4995440;28;49655;-76
2022/10/19 12:46:30;;;;;;;;;11.75;11.75;;;;;21.40;74.68;101525.22;4996046;28;49911;-74
2022/10/19 12:49:29;;;;;;;;;8.75;8.75;;;;;20.38;73.25;101343.06;4995937;28;51126;-74
2022/10/19 12:52:00;;;;;;;;;16.00;15.25;;;;;20.86;73.44;101391.47;4999289;28;49846;-77
2022/10/19 12:54:33;;;;;;;;;15.75;14.75;;;;;21.74;72.84;101496.31;5000220;28;49805;-77
2022/10/19 12:57:01;;;;;;;;;9.75;9.50;;;;;21.58;72.52;101458.22;4992418;28;50086;-75
2022/10/19 12:59:35;;;;;;;;;10.75;10.25;;;;;21.15;72.21;101425.81;5001049;28;50490;-77
2022/10/19 13:02:04;;;;;;;;;10.00;10.00;;;;;21.23;72.56;101412.34;4995136;28;49970;-77
2022/10/19 13:04:33;;;;;;;;;10.50;10.50;;;;;20.41;72.40;101296.78;4992985;28;49809;-75
2022/10/19 13:07:00;;;;;;;;;16.50;12.50;;;;;21.19;72.69;101421.31;4992146;28;49839;-75
2022/10/19 13:09:30;;;;;;;;;15.25;12.75;;;;;20.36;72.87;101325.28;4995514;28;50707;-77
2022/10/19 13:12:17;;;;;;;;;11.75;10.50;;;;;21.31;73.43;101464.81;5005647;28;49887;-75
2022/10/19 13:14:53;;;;;;;;;13.00;11.50;;;;;19.93;73.96;101228.00;4999882;28;49998;-79
2022/10/19 13:17:19;;;;;;;;;11.25;10.25;;;;;21.37;74.35;101458.50;5006996;28;49578;-79
2022/10/19 13:19:44;;;;;;;;;10.50;10.50;;;;;21.21;74.21;101424.84;4999765;28;50912;-79
2022/10/19 13:22:24;;;;;;;;;11.75;11.75;;;;;21.39;73.92;101446.00;4994200;28;49847;-75
2022/10/19 13:25:20;;;;;;;;;12.25;11.25;;;;;20.87;74.41;101382.56;5006694;28;49836;-77
2022/10/19 13:27:53;;;;;;;;;13.00;13.00;;;;;21.28;73.36;101407.88;5012477;28;49976;-81
2022/10/19 13:30:34;;;;;;;;;14.50;12.50;;;;;21.40;73.86;101431.75;5005403;28;49898;-74
2022/10/19 13:32:59;;;;;;;;;16.50;15.50;;;;;20.03;73.36;101215.47;5012098;28;49637;-78
2022/10/19 13:35:27;;;;;;;;;13.00;12.50;;;;;21.37;74.21;101407.78;5012003;28;49611;-82
2022/10/19 13:38:08;;;;;;;;;13.50;12.50;;;;;21.43;74.69;101405.03;5011219;28;50030;-83
2022/10/19 13:40:40;;;;;;;;;15.00;12.25;;;;;21.35;73.84;101383.75;4992580;28;49740;-74
2022/10/19 13:43:21;;;;;;;;;11.75;11.75;;;;;20.85;74.24;101294.53;4992660;28;49719;-80
2022/10/19 13:46:04;;;;;;;;;15.75;12.50;;;;;20.55;74.03;101237.06;4992701;28;49757;-83
2022/10/19 13:48:44;;;;;;;;;12.25;11.50;;;;;21.30;73.85;101382.03;5005750;28;49914;-82
2022/10/19 13:51:18;;;;;;;;;12.00;10.25;;;;;21.19;74.28;101373.25;5010001;28;49806;-77
2022/10/19 13:54:05;;;;;;;;;10.75;10.25;;;;;21.04;74.20;101331.66;4992545;28;49867;-84
2022/10/19 13:56:46;;;;;;;;;14.00;14.00;;;;;20.75;74.72;101289.28;4991135;28;49792;-75
2022/10/19 13:59:30;;;;;;;;;13.50;12.50;;;;;21.29;74.43;101373.16;5005199;28;49803;-81
2022/10/19 14:02:14;;;;;;;;;13.25;11.50;;;;;21.30;74.43;101368.69;5011394;28;50738;-77
2022/10/19 14:04:59;;;;;;;;;12.00;11.75;;;;;21.21;74.75;101352.75;4994360;28;49765;-78
2022/10/19 14:07:35;;;;;;;;;14.00;13.50;;;;;21.14;74.94;101331.50;5005703;28;49858;-75
2022/10/19 14:10:17;;;;;;;;;10.75;10.25;;;;;20.14;74.69;101156.69;5006786;28;50247;-84
2022/10/19 14:12:44;;;;;;;;;11.50;9.25;;;;;21.46;75.06;101361.34;5011432;28;49586;-82
2022/10/19 14:15:32;;;;;;;;;11.00;8.25;;;;;21.46;74.53;101346.22;5011506;28;49760;-83
2022/10/19 14:17:58;;;;;;;;;12.00;12.00;;;;;20.20;74.57;101148.63;5011303;28;49678;-84
2022/10/19 14:20:28;;;;;;;;;8.50;8.50;;;;;20.38;74.24;101164.41;5012015;28;50162;-81
2022/10/19 14:22:54;;;;;;;;;14.00;12.25;;;;;21.48;74.63;101347.06;5011277;28;49785;-81
2022/10/19 14:25:23;;;;;;;;;11.50;11.50;;;;;20.70;74.37;101219.13;5011195;28;49794;-76
2022/10/19 14:27:58;;;;;;;;;7.50;7.50;;;;;21.42;74.62;101333.78;5011393;28;49804;-79
2022/10/19 14:30:31;;;;;;;;;10.75;10.50;;;;;20.80;74.61;101245.66;5010584;28;49765;-77
2022/10/19 14:32:58;;;;;;;;;9.00;9.00;;;;;21.07;74.88;101296.91;5004079;28;50583;-73
2022/10/19 14:35:30;;;;;;;;;13.25;11.25;;;;;21.26;74.68;101316.22;4990735;28;49875;-72
2022/10/19 14:37:57;;;;;;;;;11.50;10.75;;;;;21.35;75.24;101334.81;4990654;28;49947;-79
2022/10/19 14:40:31;;;;;;;;;12.75;11.50;;;;;20.59;74.96;101208.59;4990892;28;49968;-77
2022/10/19 14:42:59;;;;;;;;;10.00;9.00;;;;;21.00;75.47;101285.41;4990557;28;50636;-75
2022/10/19 14:45:29;;;;;;;;;9.25;8.50;;;;;21.27;75.93;101318.88;4990544;28;50054;-73
2022/10/19 14:48:03;;;;;;;;;14.50;12.25;;;;;20.92;76.07;101263.28;4991392;28;49786;-73
2022/10/19 14:50:50;;;;;;;;;13.25;13.00;;;;;21.19;76.47;101319.88;4991708;28;49950;-73
2022/10/19 14:53:53;;;;;;;;;11.00;8.00;;;;;21.16;76.32;101312.78;4991271;28;50725;-76
2022/10/19 14:56:37;;;;;;;;;13.00;12.75;;;;;21.17;76.79;101313.66;5006878;28;49748;-76
2022/10/19 14:59:11;;;;;;;;;10.00;10.00;;;;;21.14;76.85;101296.78;5010571;28;49913;-73
2022/10/19 15:01:37;;;;;;;;;8.00;8.00;;;;;20.88;76.82;101237.56;5010450;28;49972;-71
2022/10/19 15:04:03;;;;;;;;;12.00;10.75;;;;;20.85;76.93;101240.28;5010267;28;50705;-76
2022/10/19 15:06:41;;;;;;;;;11.25;11.25;;;;;20.96;77.27;101259.69;5010325;28;50018;-71
2022/10/19 15:09:14;;;;;;;;;13.50;11.50;;;;;21.01;77.72;101257.81;5010555;28;49793;-73
2022/10/19 15:11:45;;;;;;;;;14.00;12.25;;;;;20.67;77.38;101187.16;5009233;28;50154;-71
2022/10/19 15:14:18;;;;;;;;;11.75;10.50;;;;;21.15;77.37;101258.50;5009859;28;49792;-76
2022/10/19 15:16:49;;;;;;;;;8.50;8.50;;;;;21.29;77.75;101278.81;5009831;28;50141;-75
2022/10/19 15:19:36;;;;;;;;;10.75;9.25;;;;;21.30;77.33;101288.56;5010356;28;49789;-74
2022/10/19 15:22:07;;;;;;;;;14.25;12.75;;;;;21.27;77.37;101284.16;5010569;28;50027;-75
2022/10/19 15:24:34;;;;;;;;;12.00;10.50;;;;;21.28;77.29;101283.25;5009966;28;51086;-74
2022/10/19 15:27:20;;;;;;;;;11.25;10.00;;;;;20.99;77.12;101238.28;4991212;28;49888;-72
2022/10/19 15:30:17;;;;;;;;;8.50;8.25;;;;;21.28;77.59;101272.59;5004465;28;49775;-76
2022/10/19 15:32:44;;;;;;;;;9.50;9.50;;;;;21.25;77.59;101269.06;5009682;28;50060;-72
2022/10/19 15:35:16;;;;;;;;;11.25;10.25;;;;;20.92;77.15;101212.56;5009442;28;49931;-73
2022/10/19 15:37:44;;;;;;;;;12.50;11.00;;;;;21.23;76.83;101265.50;5009803;28;49800;-74
2022/10/19 15:40:21;;;;;;;;;8.25;8.25;;;;;21.09;77.58;101247.91;5010099;28;50048;-73
2022/10/19 15:42:47;;;;;;;;;11.25;11.25;;;;;21.16;77.78;101267.41;5010171;28;49881;-74
2022/10/19 15:45:45;;;;;;;;;8.75;8.25;;;;;21.10;78.07;101268.34;5011145;28;49671;-72
2022/10/19 15:48:27;;;;;;;;;9.00;8.50;;;;;21.08;78.37;101253.28;4979013;28;49883;-78
2022/10/19 15:50:54;;;;;;;;;10.50;10.00;;;;;20.97;78.52;101245.44;5013361;28;49705;-72
2022/10/19 15:53:21;;;;;;;;;11.50;9.25;;;;;21.02;78.81;101256.03;5013424;28;49627;-73
2022/10/19 15:55:47;;;;;;;;;12.75;12.25;;;;;20.78;78.78;101215.44;5013066;28;50705;-73
2022/10/19 15:58:13;;;;;;;;;8.75;8.75;;;;;20.95;79.06;101247.25;5011969;28;49765;-74
2022/10/19 16:00:40;;;;;;;;;8.75;8.75;;;;;20.74;79.11;101205.72;5013063;28;49643;-73
2022/10/19 16:03:06;;;;;;;;;12.00;10.25;;;;;20.90;79.28;101245.53;5002645;28;50051;-72
2022/10/19 16:05:33;;;;;;;;;12.50;12.50;;;;;20.85;79.96;101245.59;4993780;28;49856;-76
2022/10/19 16:07:59;;;;;;;;;9.25;9.25;;;;;20.15;80.08;101134.47;4994013;28;49821;-76
2022/10/19 16:10:26;;;;;;;;;9.50;8.00;;;;;20.74;80.22;101239.50;4993947;28;49974;-73
2022/10/19 16:12:51;;;;;;;;;11.75;9.50;;;;;19.35;80.51;101039.47;4995148;28;49779;-75
2022/10/19 16:15:22;;;;;;;;;12.50;12.50;;;;;19.42;81.12;101027.88;4990649;28;51197;-74
2022/10/19 16:17:51;;;;;;;;;14.25;13.50;;;;;20.48;81.29;101221.19;4999416;28;50191;-73
2022/10/19 16:20:16;;;;;;;;;12.75;11.25;;;;;20.51;81.23;101232.69;5003295;28;49805;-75
2022/10/19 16:22:42;;;;;;;;;11.75;10.75;;;;;19.08;81.72;100987.41;4997660;28;49875;-73
2022/10/19 16:25:09;;;;;;;;;9.75;9.75;;;;;19.78;82.22;101118.03;4994172;28;49817;-79
2022/10/19 16:27:34;;;;;;;;;15.50;10.25;;;;;20.12;82.49;101178.03;4994231;28;49954;-78
2022/10/19 16:30:00;;;;;;;;;12.00;12.00;;;;;20.38;82.65;101231.06;4993195;28;49868;-76
2022/10/19 16:32:25;;;;;;;;;9.50;9.25;;;;;18.96;82.90;100990.22;4993259;28;49962;-74
2022/10/19 16:34:50;;;;;;;;;11.25;11.25;;;;;19.93;83.34;101220.00;4993373;28;49704;-76
2022/10/19 16:37:16;;;;;;;;;6.75;5.00;;;;;20.20;84.00;101224.16;4998158;28;49559;-74
2022/10/19 16:39:41;;;;;;;;;10.75;10.50;;;;;20.14;84.17;101221.56;5000549;28;50304;-73
2022/10/19 16:42:06;;;;;;;;;12.50;11.25;;;;;20.22;84.18;101230.34;5012672;28;49752;-72
2022/10/19 16:44:32;;;;;;;;;12.50;11.00;;;;;19.52;84.27;101112.97;5000462;28;49829;-78
2022/10/19 16:46:58;;;;;;;;;13.00;13.00;;;;;20.12;84.88;101217.16;4996651;28;49675;-73
2022/10/19 16:49:24;;;;;;;;;14.00;13.00;;;;;19.24;85.10;101110.59;4997105;28;49769;-75
2022/10/19 16:51:53;;;;;;;;;12.25;12.25;;;;;19.70;85.67;101174.97;4992773;28;50081;-74
2022/10/19 16:54:19;;;;;;;;;14.00;13.00;;;;;19.88;86.26;101215.59;4991516;28;50132;-74
2022/10/19 16:56:46;;;;;;;;;11.25;11.25;;;;;19.43;86.38;101141.47;4992457;28;49981;-74
2022/10/19 16:59:14;;;;;;;;;13.75;12.75;;;;;19.87;86.75;101216.50;4993214;28;49716;-74
2022/10/19 17:01:42;;;;;;;;;13.00;11.50;;;;;19.67;86.84;101196.28;4993209;28;49642;-77
2022/10/19 17:04:09;;;;;;;;;14.00;14.00;;;;;18.92;87.25;101076.28;4993588;28;50545;-79
2022/10/19 17:06:35;;;;;;;;;11.50;11.50;;;;;19.15;87.55;101124.84;4993260;28;49632;-80